createdAt,value
2018-09-17T00:00:11.998Z,14.80
2018-09-17T00:01:11.988Z,16.50
2018-09-17T00:02:11.976Z,16.30
2018-09-17T00:03:11.973Z,15.00
2018-09-17T00:04:11.960Z,17.20
2018-09-17T00:05:11.954Z,14.50
2018-09-17T00:06:11.950Z,14.30
2018-09-17T00:07:11.938Z,14.60
2018-09-17T00:08:11.932Z,15.00
2018-09-17T00:09:11.928Z,14.90
2018-09-17T00:10:11.920Z,17.00
2018-09-17T00:11:11.916Z,15.70
2018-09-17T00:12:11.903Z,14.50
2018-09-17T00:13:11.901Z,19.60
2018-09-17T00:14:11.891Z,14.80
2018-09-17T00:15:11.889Z,15.90
2018-09-17T00:16:11.874Z,15.50
2018-09-17T00:17:11.873Z,18.50
2018-09-17T00:18:11.864Z,15.10
2018-09-17T00:19:11.851Z,15.20
2018-09-17T00:20:11.852Z,15.30
2018-09-17T00:21:11.838Z,16.60
2018-09-17T00:22:11.833Z,16.00
2018-09-17T00:23:11.822Z,15.70
2018-09-17T00:24:11.821Z,14.60
2018-09-17T00:25:11.808Z,15.70
2018-09-17T00:26:11.806Z,21.40
2018-09-17T00:27:11.795Z,16.80
2018-09-17T00:28:11.784Z,17.40
2018-09-17T00:29:11.778Z,18.00
2018-09-17T00:30:11.775Z,20.80
2018-09-17T00:31:11.763Z,15.70
2018-09-17T00:32:11.755Z,16.80
2018-09-17T00:33:11.752Z,16.60
2018-09-17T00:34:11.741Z,17.80
2018-09-17T00:35:11.733Z,16.20
2018-09-17T00:36:11.732Z,16.40
2018-09-17T00:37:11.725Z,16.70
2018-09-17T00:38:11.711Z,15.30
2018-09-17T00:39:11.703Z,17.00
2018-09-17T00:40:11.696Z,16.80
2018-09-17T00:41:11.688Z,16.60
2018-09-17T00:42:11.685Z,17.10
2018-09-17T00:43:11.674Z,16.40
2018-09-17T00:44:11.673Z,15.50
2018-09-17T00:45:11.660Z,16.20
2018-09-17T00:46:11.657Z,17.70
2018-09-17T00:47:11.649Z,17.00
2018-09-17T00:48:11.644Z,18.10
2018-09-17T00:49:11.631Z,16.90
2018-09-17T00:50:11.621Z,22.80
2018-09-17T00:51:11.620Z,15.40
2018-09-17T00:52:11.610Z,17.00
2018-09-17T00:53:11.606Z,17.80
2018-09-17T00:54:11.595Z,17.70
2018-09-17T00:55:11.592Z,18.20
2018-09-17T00:56:11.577Z,17.20
2018-09-17T00:57:11.575Z,17.70
2018-09-17T00:58:11.567Z,17.70
2018-09-17T00:59:11.554Z,16.70
2018-09-17T01:00:11.547Z,18.90
2018-09-17T01:01:11.541Z,19.00
2018-09-17T01:02:11.535Z,15.40
2018-09-17T01:03:11.528Z,16.70
2018-09-17T01:04:11.522Z,16.60
2018-09-17T01:05:11.515Z,17.50
2018-09-17T01:06:11.507Z,16.00
2018-09-17T01:07:11.495Z,19.30
2018-09-17T01:08:11.488Z,18.40
2018-09-17T01:09:11.481Z,17.30
2018-09-17T01:10:11.473Z,17.40
2018-09-17T01:11:11.471Z,21.80
2018-09-17T01:12:11.460Z,19.60
2018-09-17T01:13:11.453Z,17.90
2018-09-17T01:14:11.441Z,19.20
2018-09-17T01:15:11.438Z,19.90
2018-09-17T01:16:11.436Z,20.20
2018-09-17T01:17:11.422Z,19.00
2018-09-17T01:18:11.410Z,20.20
2018-09-17T01:19:11.404Z,22.20
2018-09-17T01:20:11.405Z,17.80
2018-09-17T01:21:11.393Z,20.70
2018-09-17T01:22:11.381Z,16.80
2018-09-17T01:23:11.374Z,18.00
2018-09-17T01:24:11.371Z,20.00
2018-09-17T01:25:11.365Z,18.70
2018-09-17T01:26:11.351Z,18.90
2018-09-17T01:27:11.347Z,21.20
2018-09-17T01:28:11.342Z,18.50
2018-09-17T01:29:11.336Z,19.60
2018-09-17T01:30:11.326Z,19.50
2018-09-17T01:31:11.313Z,18.70
2018-09-17T01:32:11.312Z,20.00
2018-09-17T01:33:11.305Z,19.60
2018-09-17T01:34:11.291Z,19.40
2018-09-17T01:35:11.289Z,19.00
2018-09-17T01:36:11.276Z,18.50
2018-09-17T01:37:11.267Z,20.20
2018-09-17T01:38:11.262Z,17.70
2018-09-17T01:39:11.253Z,20.40
2018-09-17T01:40:11.246Z,20.40
2018-09-17T01:41:11.239Z,18.90
2018-09-17T01:42:11.232Z,21.40
2018-09-17T01:43:11.224Z,19.10
2018-09-17T01:44:11.214Z,20.50
2018-09-17T01:45:11.212Z,21.30
2018-09-17T01:46:11.247Z,21.70
2018-09-17T01:47:11.191Z,20.00
2018-09-17T01:48:11.184Z,18.10
2018-09-17T01:49:11.185Z,20.50
2018-09-17T01:50:11.172Z,20.60
2018-09-17T01:51:11.165Z,20.90
2018-09-17T01:52:11.153Z,19.60
2018-09-17T01:53:11.145Z,21.20
2018-09-17T01:54:11.136Z,17.60
2018-09-17T01:55:11.129Z,17.80
2018-09-17T01:56:11.122Z,18.60
2018-09-17T01:57:11.113Z,18.80
2018-09-17T01:58:11.105Z,19.10
2018-09-17T01:59:11.097Z,19.60
2018-09-17T02:00:11.095Z,19.80
2018-09-17T02:01:11.083Z,19.40
2018-09-17T02:02:11.074Z,19.00
2018-09-17T02:03:11.071Z,17.90
2018-09-17T02:04:11.064Z,19.00
2018-09-17T02:05:11.052Z,19.00
2018-09-17T02:06:11.044Z,19.00
2018-09-17T02:07:11.036Z,19.60
2018-09-17T02:08:11.071Z,24.30
2018-09-17T02:09:11.050Z,20.30
2018-09-17T02:10:11.012Z,20.00
2018-09-17T02:11:11.005Z,20.40
2018-09-17T02:12:11.000Z,17.70
2018-09-17T02:13:10.991Z,22.20
2018-09-17T02:14:10.980Z,19.90
2018-09-17T02:15:10.975Z,20.00
2018-09-17T02:16:10.971Z,18.30
2018-09-17T02:17:10.965Z,21.30
2018-09-17T02:18:10.953Z,23.10
2018-09-17T02:19:10.942Z,19.50
2018-09-17T02:20:10.935Z,22.10
2018-09-17T02:21:10.928Z,20.60
2018-09-17T02:22:10.924Z,20.70
2018-09-17T02:23:10.912Z,21.70
2018-09-17T02:24:10.903Z,19.40
2018-09-17T02:25:10.902Z,22.30
2018-09-17T02:26:10.897Z,22.90
2018-09-17T02:27:10.879Z,23.30
2018-09-17T02:28:10.878Z,31.50
2018-09-17T02:29:10.864Z,29.00
2018-09-17T02:30:10.857Z,37.00
2018-09-17T02:31:10.851Z,38.40
2018-09-17T02:32:10.845Z,41.60
2018-09-17T02:33:10.832Z,43.60
2018-09-17T02:34:10.824Z,28.30
2018-09-17T02:35:10.822Z,35.00
2018-09-17T02:36:10.813Z,26.30
2018-09-17T02:37:10.802Z,24.10
2018-09-17T02:38:10.802Z,26.40
2018-09-17T02:39:10.790Z,25.50
2018-09-17T02:40:10.778Z,32.80
2018-09-17T02:41:10.773Z,32.40
2018-09-17T02:42:10.764Z,88.90
2018-09-17T02:43:10.760Z,47.20
2018-09-17T02:44:10.748Z,32.60
2018-09-17T02:45:10.742Z,30.20
2018-09-17T02:46:10.736Z,51.60
2018-09-17T02:47:10.725Z,42.40
2018-09-17T02:48:10.712Z,37.70
2018-09-17T02:49:10.711Z,46.30
2018-09-17T02:50:10.695Z,36.50
2018-09-17T02:51:10.695Z,30.00
2018-09-17T02:52:10.681Z,102.50
2018-09-17T02:53:10.677Z,135.70
2018-09-17T02:54:10.668Z,132.90
2018-09-17T02:55:10.656Z,146.00
2018-09-17T02:56:10.652Z,282.30
2018-09-17T02:57:10.642Z,64.60
2018-09-17T02:58:10.633Z,94.00
2018-09-17T02:59:10.626Z,230.80
2018-09-17T03:00:10.622Z,95.80
2018-09-17T03:01:10.615Z,50.00
2018-09-17T03:02:10.608Z,73.90
2018-09-17T03:03:10.601Z,140.70
2018-09-17T03:04:10.593Z,71.30
2018-09-17T03:05:10.577Z,40.30
2018-09-17T03:06:10.574Z,148.80
2018-09-17T03:07:10.567Z,84.50
2018-09-17T03:08:10.556Z,94.20
2018-09-17T03:09:10.548Z,108.70
2018-09-17T03:10:10.537Z,75.80
2018-09-17T03:11:10.534Z,84.40
2018-09-17T03:12:10.520Z,37.60
2018-09-17T03:13:10.513Z,32.80
2018-09-17T03:14:10.504Z,31.30
2018-09-17T03:15:10.499Z,26.80
2018-09-17T03:16:10.495Z,33.00
2018-09-17T03:17:10.485Z,27.30
2018-09-17T03:18:10.473Z,27.00
2018-09-17T03:19:10.470Z,44.20
2018-09-17T03:20:10.456Z,87.90
2018-09-17T03:21:10.449Z,66.10
2018-09-17T03:22:10.446Z,75.50
2018-09-17T03:23:10.437Z,97.10
2018-09-17T03:24:10.424Z,146.40
2018-09-17T03:25:10.422Z,300.60
2018-09-17T03:26:10.410Z,309.60
2018-09-17T03:27:10.400Z,189.60
2018-09-17T03:28:10.397Z,245.30
2018-09-17T03:29:10.385Z,129.00
2018-09-17T03:30:10.380Z,120.10
2018-09-17T03:31:10.369Z,56.50
2018-09-17T03:32:10.360Z,50.70
2018-09-17T03:33:10.354Z,94.50
2018-09-17T03:34:10.345Z,69.10
2018-09-17T03:35:10.340Z,61.40
2018-09-17T03:36:10.336Z,61.30
2018-09-17T03:37:10.336Z,52.50
2018-09-17T03:38:10.316Z,62.20
2018-09-17T03:39:10.311Z,48.00
2018-09-17T03:40:10.303Z,33.20
2018-09-17T03:41:10.292Z,31.80
2018-09-17T03:42:10.290Z,31.70
2018-09-17T03:43:10.278Z,45.30
2018-09-17T03:44:10.265Z,68.70
2018-09-17T03:45:10.261Z,37.80
2018-09-17T03:46:10.313Z,66.90
2018-09-17T03:47:10.243Z,43.20
2018-09-17T03:48:10.235Z,44.10
2018-09-17T03:49:10.232Z,38.50
2018-09-17T03:50:10.219Z,35.80
2018-09-17T03:51:10.212Z,64.80
2018-09-17T03:52:10.205Z,32.30
2018-09-17T03:53:10.194Z,37.90
2018-09-17T03:54:10.188Z,42.80
2018-09-17T03:55:10.186Z,24.50
2018-09-17T03:56:10.175Z,25.00
2018-09-17T03:57:10.168Z,24.80
2018-09-17T03:58:10.157Z,25.80
2018-09-17T03:59:10.150Z,28.60
2018-09-17T04:00:10.141Z,51.40
2018-09-17T04:01:10.137Z,86.30
2018-09-17T04:02:10.130Z,40.10
2018-09-17T04:03:10.114Z,33.20
2018-09-17T04:04:10.106Z,85.10
2018-09-17T04:05:10.102Z,48.10
2018-09-17T04:06:10.090Z,190.50
2018-09-17T04:07:10.083Z,52.70
2018-09-17T04:08:10.081Z,213.20
2018-09-17T04:09:10.072Z,74.00
2018-09-17T04:10:10.058Z,49.20
2018-09-17T04:11:10.051Z,43.70
2018-09-17T04:12:10.043Z,42.30
2018-09-17T04:13:10.035Z,34.10
2018-09-17T04:14:10.026Z,36.40
2018-09-17T04:15:10.018Z,38.60
2018-09-17T04:16:10.017Z,104.80
2018-09-17T04:17:10.002Z,47.50
2018-09-17T04:18:09.994Z,35.40
2018-09-17T04:19:09.986Z,66.40
2018-09-17T04:20:09.979Z,146.10
2018-09-17T04:21:09.974Z,97.30
2018-09-17T04:22:10.009Z,25.30
2018-09-17T04:23:09.955Z,224.70
2018-09-17T04:24:09.947Z,250.00
2018-09-17T04:25:09.939Z,110.30
2018-09-17T04:26:09.932Z,41.10
2018-09-17T04:27:09.928Z,148.50
2018-09-17T04:28:09.915Z,126.10
2018-09-17T04:29:09.910Z,105.70
2018-09-17T04:30:09.900Z,257.70
2018-09-17T04:31:09.893Z,324.20
2018-09-17T04:32:09.883Z,109.80
2018-09-17T04:33:09.918Z,40.20
2018-09-17T04:34:09.872Z,29.80
2018-09-17T04:35:09.862Z,25.90
2018-09-17T04:36:09.852Z,27.50
2018-09-17T04:37:09.847Z,26.20
2018-09-17T04:38:09.835Z,25.90
2018-09-17T04:39:09.824Z,24.70
2018-09-17T04:40:09.816Z,27.00
2018-09-17T04:41:09.814Z,25.90
2018-09-17T04:42:09.801Z,22.90
2018-09-17T04:43:09.794Z,23.90
2018-09-17T04:44:09.785Z,26.10
2018-09-17T04:45:09.783Z,25.40
2018-09-17T04:46:09.773Z,23.10
2018-09-17T04:47:09.766Z,24.00
2018-09-17T04:48:09.758Z,27.00
2018-09-17T04:49:09.746Z,22.60
2018-09-17T04:50:09.734Z,24.70
2018-09-17T04:51:09.726Z,24.30
2018-09-17T04:52:09.723Z,25.30
2018-09-17T04:53:09.710Z,24.70
2018-09-17T04:54:09.701Z,21.70
2018-09-17T04:55:09.698Z,21.70
2018-09-17T04:56:09.691Z,23.50
2018-09-17T04:57:09.722Z,24.60
2018-09-17T04:58:09.668Z,27.80
2018-09-17T04:59:09.666Z,31.80
2018-09-17T05:00:09.653Z,36.80
2018-09-17T05:01:09.647Z,150.80
2018-09-17T05:02:09.639Z,166.70
2018-09-17T05:03:09.635Z,94.50
2018-09-17T05:04:09.619Z,63.50
2018-09-17T05:05:09.620Z,94.90
2018-09-17T05:06:09.609Z,64.30
2018-09-17T05:07:09.602Z,93.90
2018-09-17T05:08:09.588Z,59.00
2018-09-17T05:09:09.583Z,86.00
2018-09-17T05:10:09.571Z,36.60
2018-09-17T05:11:09.566Z,85.60
2018-09-17T05:12:09.562Z,165.20
2018-09-17T05:13:09.624Z,207.30
2018-09-17T05:14:09.543Z,153.40
2018-09-17T05:15:09.529Z,92.60
2018-09-17T05:16:09.529Z,105.20
2018-09-17T05:17:09.513Z,59.50
2018-09-17T05:18:09.504Z,34.10
2018-09-17T05:19:09.501Z,31.20
2018-09-17T05:20:09.494Z,25.40
2018-09-17T05:21:09.481Z,26.20
2018-09-17T05:22:09.472Z,28.50
2018-09-17T05:23:09.467Z,30.10
2018-09-17T05:24:09.459Z,30.50
2018-09-17T05:25:09.454Z,30.30
2018-09-17T05:26:09.442Z,28.00
2018-09-17T05:27:09.431Z,27.80
2018-09-17T05:28:09.428Z,41.30
2018-09-17T05:29:09.418Z,23.90
2018-09-17T05:30:09.406Z,29.70
2018-09-17T05:31:09.398Z,26.60
2018-09-17T05:32:09.395Z,27.20
2018-09-17T05:33:09.386Z,32.30
2018-09-17T05:34:09.374Z,30.30
2018-09-17T05:35:09.453Z,39.20
2018-09-17T05:36:09.361Z,31.50
2018-09-17T05:37:09.352Z,29.70
2018-09-17T05:38:09.341Z,33.20
2018-09-17T05:39:09.337Z,43.10
2018-09-17T05:40:09.326Z,32.30
2018-09-17T05:41:09.320Z,35.40
2018-09-17T05:42:09.315Z,34.00
2018-09-17T05:43:09.301Z,32.30
2018-09-17T05:44:09.298Z,54.10
2018-09-17T05:45:09.287Z,126.90
2018-09-17T05:46:09.284Z,46.10
2018-09-17T05:47:09.275Z,39.90
2018-09-17T05:48:09.266Z,30.90
2018-09-17T05:49:09.256Z,35.70
2018-09-17T05:50:09.245Z,28.80
2018-09-17T05:51:09.237Z,30.40
2018-09-17T05:52:09.229Z,31.30
2018-09-17T05:53:09.225Z,29.60
2018-09-17T05:54:09.213Z,35.20
2018-09-17T05:55:09.206Z,36.20
2018-09-17T05:56:09.201Z,39.00
2018-09-17T05:57:09.196Z,33.80
2018-09-17T05:58:09.186Z,32.60
2018-09-17T05:59:09.173Z,32.90
2018-09-17T06:00:09.172Z,30.20
2018-09-17T06:01:09.160Z,39.40
2018-09-17T06:02:09.152Z,36.00
2018-09-17T06:03:09.145Z,39.20
2018-09-17T06:04:09.142Z,53.90
2018-09-17T06:05:09.126Z,59.60
2018-09-17T06:06:09.179Z,49.70
2018-09-17T06:07:09.266Z,71.00
2018-09-17T06:08:09.102Z,64.20
2018-09-17T06:09:09.095Z,51.00
2018-09-17T06:10:09.088Z,40.30
2018-09-17T06:11:09.214Z,63.20
2018-09-17T06:12:09.075Z,87.50
2018-09-17T06:13:09.070Z,55.60
2018-09-17T06:14:09.055Z,47.70
2018-09-17T06:15:09.053Z,51.40
2018-09-17T06:16:09.041Z,43.10
2018-09-17T06:17:09.030Z,56.90
2018-09-17T06:18:09.023Z,75.30
2018-09-17T06:19:09.015Z,69.90
2018-09-17T06:20:09.013Z,133.50
2018-09-17T06:21:09.007Z,132.40
2018-09-17T06:22:08.992Z,55.30
2018-09-17T06:23:08.994Z,56.40
2018-09-17T06:24:08.975Z,51.90
2018-09-17T06:25:08.975Z,196.00
2018-09-17T06:26:08.960Z,79.00
2018-09-17T06:27:08.952Z,42.70
2018-09-17T06:28:08.947Z,37.60
2018-09-17T06:29:08.943Z,41.70
2018-09-17T06:30:08.932Z,35.20
2018-09-17T06:31:08.921Z,33.80
2018-09-17T06:32:08.923Z,42.30
2018-09-17T06:33:08.909Z,130.60
2018-09-17T06:34:08.904Z,176.20
2018-09-17T06:35:08.890Z,159.10
2018-09-17T06:36:08.921Z,101.40
2018-09-17T06:37:08.876Z,288.00
2018-09-17T06:38:08.871Z,121.10
2018-09-17T06:39:08.859Z,178.00
2018-09-17T06:40:08.852Z,203.10
2018-09-17T06:41:08.845Z,183.00
2018-09-17T06:42:08.839Z,176.80
2018-09-17T06:43:08.834Z,40.50
2018-09-17T06:44:08.826Z,48.10
2018-09-17T06:45:08.823Z,62.30
2018-09-17T06:46:08.806Z,62.50
2018-09-17T06:47:08.803Z,51.80
2018-09-17T06:48:08.794Z,52.60
2018-09-17T06:49:08.786Z,70.70
2018-09-17T06:50:08.777Z,54.20
2018-09-17T06:51:08.773Z,66.40
2018-09-17T06:52:08.763Z,67.00
2018-09-17T06:53:08.760Z,47.40
2018-09-17T06:54:08.746Z,37.60
2018-09-17T06:55:08.741Z,41.80
2018-09-17T06:56:08.731Z,53.20
2018-09-17T06:57:08.722Z,43.10
2018-09-17T06:58:08.720Z,33.60
2018-09-17T06:59:08.710Z,45.40
2018-09-17T07:00:08.699Z,49.10
2018-09-17T07:01:08.692Z,35.40
2018-09-17T07:02:08.684Z,37.70
2018-09-17T07:03:08.682Z,31.80
2018-09-17T07:04:08.676Z,31.80
2018-09-17T07:05:08.663Z,36.40
2018-09-17T07:06:08.692Z,29.70
2018-09-17T07:07:08.648Z,28.80
2018-09-17T07:08:08.645Z,30.40
2018-09-17T07:09:08.644Z,32.80
2018-09-17T07:10:08.630Z,30.70
2018-09-17T07:11:08.618Z,33.60
2018-09-17T07:12:08.611Z,31.90
2018-09-17T07:13:08.603Z,33.70
2018-09-17T07:14:08.605Z,30.20
2018-09-17T07:15:08.614Z,31.10
2018-09-17T07:16:08.582Z,33.20
2018-09-17T07:17:08.576Z,45.00
2018-09-17T07:18:08.600Z,34.90
2018-09-17T07:19:08.566Z,34.80
2018-09-17T07:20:08.558Z,34.00
2018-09-17T07:21:08.550Z,31.90
2018-09-17T07:22:08.541Z,44.30
2018-09-17T07:23:08.538Z,48.90
2018-09-17T07:24:08.526Z,45.10
2018-09-17T07:25:08.522Z,35.30
2018-09-17T07:26:08.510Z,34.80
2018-09-17T07:27:08.503Z,43.70
2018-09-17T07:28:08.503Z,35.50
2018-09-17T07:29:08.496Z,36.20
2018-09-17T07:30:08.482Z,32.50
2018-09-17T07:31:08.482Z,33.60
2018-09-17T07:32:08.475Z,45.10
2018-09-17T07:33:08.468Z,41.00
2018-09-17T07:34:08.454Z,42.10
2018-09-17T07:35:08.450Z,47.60
2018-09-17T07:36:08.492Z,47.20
2018-09-17T07:37:08.441Z,43.20
2018-09-17T07:38:08.426Z,45.80
2018-09-17T07:39:08.430Z,52.20
2018-09-17T07:40:08.416Z,39.70
2018-09-17T07:41:08.407Z,35.00
2018-09-17T07:42:08.483Z,35.10
2018-09-17T07:43:08.397Z,38.00
2018-09-17T07:44:08.388Z,44.60
2018-09-17T07:45:08.389Z,52.80
2018-09-17T07:46:08.372Z,43.40
2018-09-17T07:47:08.366Z,40.60
2018-09-17T07:48:08.366Z,33.20
2018-09-17T07:49:08.353Z,38.70
2018-09-17T07:50:08.348Z,34.70
2018-09-17T07:51:08.338Z,35.10
2018-09-17T07:52:08.333Z,39.80
2018-09-17T07:53:08.372Z,34.70
2018-09-17T07:54:08.325Z,37.40
2018-09-17T07:55:08.322Z,35.80
2018-09-17T07:56:08.319Z,31.60
2018-09-17T07:57:08.307Z,32.60
2018-09-17T07:58:08.292Z,33.50
2018-09-17T07:59:08.286Z,31.30
2018-09-17T08:00:08.286Z,34.90
2018-09-17T08:01:08.274Z,41.20
2018-09-17T08:02:08.269Z,41.30
2018-09-17T08:03:08.260Z,35.60
2018-09-17T08:04:08.257Z,37.10
2018-09-17T08:05:08.254Z,37.70
2018-09-17T08:06:08.241Z,37.30
2018-09-17T08:07:08.241Z,37.30
2018-09-17T08:08:08.230Z,36.60
2018-09-17T08:09:08.227Z,39.10
2018-09-17T08:10:08.221Z,35.30
2018-09-17T08:11:08.212Z,37.70
2018-09-17T08:12:08.210Z,37.40
2018-09-17T08:13:08.200Z,41.40
2018-09-17T08:14:08.196Z,41.30
2018-09-17T08:15:08.189Z,35.40
2018-09-17T08:16:08.183Z,36.10
2018-09-17T08:17:08.188Z,35.40
2018-09-17T08:18:08.172Z,35.20
2018-09-17T08:19:08.172Z,34.70
2018-09-17T08:20:08.162Z,34.40
2018-09-17T08:21:08.160Z,31.70
2018-09-17T08:22:08.155Z,32.00
2018-09-17T08:23:08.145Z,34.00
2018-09-17T08:24:08.144Z,32.80
2018-09-17T08:25:08.140Z,31.80
2018-09-17T08:26:08.128Z,32.80
2018-09-17T08:27:08.126Z,28.30
2018-09-17T08:28:08.117Z,29.20
2018-09-17T08:29:08.112Z,27.90
2018-09-17T08:30:08.106Z,28.20
2018-09-17T08:31:08.108Z,27.40
2018-09-17T08:32:08.094Z,28.00
2018-09-17T08:33:08.089Z,34.60
2018-09-17T08:34:08.085Z,35.50
2018-09-17T08:35:08.079Z,30.80
2018-09-17T08:36:08.077Z,27.70
2018-09-17T08:37:08.068Z,27.40
2018-09-17T08:38:08.088Z,27.50
2018-09-17T08:39:08.055Z,24.10
2018-09-17T08:40:08.050Z,24.90
2018-09-17T08:41:08.051Z,26.50
2018-09-17T08:42:08.039Z,26.00
2018-09-17T08:43:08.038Z,31.60
2018-09-17T08:44:08.033Z,25.80
2018-09-17T08:45:08.024Z,25.40
2018-09-17T08:46:08.018Z,24.30
2018-09-17T08:47:08.020Z,25.90
2018-09-17T08:48:08.010Z,24.40
2018-09-17T08:49:08.003Z,24.50
2018-09-17T08:50:08.004Z,30.00
2018-09-17T08:51:07.992Z,39.90
2018-09-17T08:52:08.030Z,35.80
2018-09-17T08:53:08.015Z,28.20
2018-09-17T08:54:07.980Z,27.30
2018-09-17T08:55:07.977Z,29.60
2018-09-17T08:56:08.014Z,30.20
2018-09-17T08:57:07.965Z,30.40
2018-09-17T08:58:07.988Z,26.20
2018-09-17T08:59:07.954Z,29.00
2018-09-17T09:00:07.945Z,31.30
2018-09-17T09:01:07.942Z,33.10
2018-09-17T09:02:07.937Z,29.30
2018-09-17T09:03:07.931Z,32.30
2018-09-17T09:04:07.938Z,30.90
2018-09-17T09:05:07.976Z,37.70
2018-09-17T09:06:07.917Z,33.30
2018-09-17T09:07:07.916Z,31.80
2018-09-17T09:08:07.905Z,35.00
2018-09-17T09:09:07.900Z,32.00
2018-09-17T09:10:07.893Z,38.40
2018-09-17T09:11:07.891Z,36.10
2018-09-17T09:12:07.890Z,38.50
2018-09-17T09:13:07.882Z,35.90
2018-09-17T09:14:07.872Z,33.80
2018-09-17T09:15:07.871Z,34.40
2018-09-17T09:16:07.863Z,32.80
2018-09-17T09:17:07.859Z,36.10
2018-09-17T09:18:07.852Z,33.60
2018-09-17T09:19:07.853Z,32.30
2018-09-17T09:20:07.848Z,28.40
2018-09-17T09:21:07.843Z,28.50
2018-09-17T09:22:07.835Z,29.00
2018-09-17T09:23:07.825Z,30.90
2018-09-17T09:24:07.828Z,27.90
2018-09-17T09:25:07.815Z,26.00
2018-09-17T09:26:07.816Z,26.40
2018-09-17T09:27:07.814Z,25.00
2018-09-17T09:28:07.800Z,24.60
2018-09-17T09:29:07.800Z,28.20
2018-09-17T09:30:07.793Z,21.20
2018-09-17T09:31:07.793Z,23.70
2018-09-17T09:32:07.783Z,24.40
2018-09-17T09:33:07.783Z,24.60
2018-09-17T09:34:07.784Z,23.70
2018-09-17T09:35:07.773Z,25.00
2018-09-17T09:36:07.764Z,24.00
2018-09-17T09:37:07.763Z,26.60
2018-09-17T09:38:07.758Z,26.40
2018-09-17T09:39:07.752Z,21.20
2018-09-17T09:40:07.745Z,23.10
2018-09-17T09:41:07.747Z,24.00
2018-09-17T09:42:07.742Z,21.80
2018-09-17T09:43:07.734Z,21.10
2018-09-17T09:44:07.727Z,26.20
2018-09-17T09:45:07.721Z,20.60
2018-09-17T09:46:07.718Z,22.70
2018-09-17T09:47:07.714Z,20.70
2018-09-17T09:48:07.708Z,23.70
2018-09-17T09:49:07.704Z,23.70
2018-09-17T09:50:07.699Z,26.90
2018-09-17T09:51:07.695Z,22.20
2018-09-17T09:52:07.693Z,20.70
2018-09-17T09:53:07.688Z,22.50
2018-09-17T09:54:07.694Z,20.30
2018-09-17T09:55:07.685Z,19.00
2018-09-17T09:56:07.675Z,19.60
2018-09-17T09:57:07.669Z,22.50
2018-09-17T09:58:07.662Z,21.20
2018-09-17T09:59:07.660Z,18.50
2018-09-17T10:00:07.662Z,18.30
2018-09-17T10:01:07.652Z,20.10
2018-09-17T10:02:07.650Z,21.10
2018-09-17T10:03:07.649Z,20.80
2018-09-17T10:04:07.643Z,23.70
2018-09-17T10:05:07.635Z,25.00
2018-09-17T10:06:07.631Z,32.30
2018-09-17T10:07:07.630Z,29.20
2018-09-17T10:08:07.624Z,23.60
2018-09-17T10:09:07.624Z,20.30
2018-09-17T10:10:07.619Z,26.20
2018-09-17T10:11:07.615Z,31.40
2018-09-17T10:12:07.612Z,24.50
2018-09-17T10:13:07.657Z,20.10
2018-09-17T10:14:07.604Z,17.10
2018-09-17T10:15:07.605Z,17.90
2018-09-17T10:16:07.593Z,16.30
2018-09-17T10:17:07.590Z,17.00
2018-09-17T10:18:07.594Z,15.80
2018-09-17T10:19:07.589Z,16.30
2018-09-17T10:20:07.586Z,15.60
2018-09-17T10:21:07.580Z,17.70
2018-09-17T10:22:07.580Z,14.70
2018-09-17T10:23:07.576Z,15.30
2018-09-17T10:24:07.567Z,15.30
2018-09-17T10:25:07.567Z,15.30
2018-09-17T10:26:07.560Z,16.70
2018-09-17T10:27:07.559Z,17.10
2018-09-17T10:28:07.555Z,17.00
2018-09-17T10:29:07.551Z,15.90
2018-09-17T10:30:07.553Z,16.40
2018-09-17T10:31:07.552Z,14.80
2018-09-17T10:32:07.541Z,13.50
2018-09-17T10:33:07.541Z,14.40
2018-09-17T10:34:07.535Z,17.60
2018-09-17T10:35:07.536Z,14.40
2018-09-17T10:36:07.536Z,14.40
2018-09-17T10:37:07.532Z,14.20
2018-09-17T10:38:07.523Z,15.80
2018-09-17T10:39:07.526Z,15.00
2018-09-17T10:40:07.519Z,15.00
2018-09-17T10:41:07.516Z,13.50
2018-09-17T10:42:07.512Z,13.70
2018-09-17T10:43:07.514Z,14.00
2018-09-17T10:44:07.508Z,11.90
2018-09-17T10:45:07.512Z,11.30
2018-09-17T10:46:07.502Z,11.80
2018-09-17T10:47:07.500Z,10.60
2018-09-17T10:48:07.503Z,11.20
2018-09-17T10:49:07.501Z,10.00
2018-09-17T10:50:07.491Z,10.70
2018-09-17T10:51:07.493Z,12.50
2018-09-17T10:52:07.490Z,10.90
2018-09-17T10:53:07.490Z,11.20
2018-09-17T10:54:07.485Z,11.10
2018-09-17T10:55:07.479Z,9.90
2018-09-17T10:56:07.483Z,10.50
2018-09-17T10:57:07.478Z,10.30
2018-09-17T10:58:07.472Z,12.80
2018-09-17T10:59:07.470Z,9.70
2018-09-17T11:00:07.471Z,11.70
2018-09-17T11:01:07.468Z,11.10
2018-09-17T11:02:07.468Z,10.20
2018-09-17T11:03:07.460Z,9.60
2018-09-17T11:04:07.462Z,11.00
2018-09-17T11:05:07.459Z,10.00
2018-09-17T11:06:07.452Z,13.90
2018-09-17T11:07:07.451Z,15.60
2018-09-17T11:08:07.460Z,9.10
2018-09-17T11:09:07.451Z,9.70
2018-09-17T11:10:07.452Z,11.10
2018-09-17T11:11:07.443Z,10.40
2018-09-17T11:12:07.445Z,9.70
2018-09-17T11:13:07.445Z,12.30
2018-09-17T11:14:07.440Z,9.40
2018-09-17T11:15:07.438Z,10.10
2018-09-17T11:16:07.439Z,12.20
2018-09-17T11:17:07.435Z,13.20
2018-09-17T11:18:07.436Z,10.70
2018-09-17T11:19:07.431Z,11.60
2018-09-17T11:20:07.426Z,9.80
2018-09-17T11:21:07.424Z,10.60
2018-09-17T11:22:07.421Z,9.80
2018-09-17T11:23:07.420Z,9.90
2018-09-17T11:24:07.420Z,11.30
2018-09-17T11:25:07.458Z,12.80
2018-09-17T11:26:07.415Z,11.80
2018-09-17T11:27:07.419Z,9.10
2018-09-17T11:28:07.416Z,10.10
2018-09-17T11:29:07.417Z,10.70
2018-09-17T11:30:07.407Z,10.30
2018-09-17T11:31:07.407Z,8.30
2018-09-17T11:32:07.419Z,11.10
2018-09-17T11:33:07.404Z,13.40
2018-09-17T11:34:07.401Z,8.90
2018-09-17T11:35:07.400Z,10.80
2018-09-17T11:36:07.400Z,8.40
2018-09-17T11:37:07.397Z,10.40
2018-09-17T11:38:07.395Z,13.20
2018-09-17T11:39:07.396Z,14.30
2018-09-17T11:40:07.397Z,8.50
2018-09-17T11:41:07.393Z,10.80
2018-09-17T11:42:07.396Z,8.90
2018-09-17T11:43:07.390Z,11.80
2018-09-17T11:44:07.391Z,8.40
2018-09-17T11:45:07.387Z,11.70
2018-09-17T11:46:07.381Z,8.40
2018-09-17T11:47:07.385Z,8.80
2018-09-17T11:48:07.431Z,9.30
2018-09-17T11:49:07.377Z,8.50
2018-09-17T11:50:07.374Z,8.80
2018-09-17T11:51:07.374Z,9.00
2018-09-17T11:52:07.372Z,7.40
2018-09-17T11:53:07.449Z,7.80
2018-09-17T11:54:07.391Z,11.00
2018-09-17T11:55:07.377Z,12.50
2018-09-17T11:56:07.367Z,7.80
2018-09-17T11:57:07.365Z,8.10
2018-09-17T11:58:07.367Z,8.00
2018-09-17T11:59:07.363Z,6.10
2018-09-17T12:00:07.359Z,6.40
2018-09-17T12:01:07.358Z,8.30
2018-09-17T12:02:07.391Z,6.40
2018-09-17T12:03:07.358Z,6.60
2018-09-17T12:04:07.355Z,6.70
2018-09-17T12:05:07.360Z,5.90
2018-09-17T12:06:07.356Z,5.80
2018-09-17T12:07:07.352Z,6.90
2018-09-17T12:08:07.346Z,7.10
2018-09-17T12:09:07.375Z,6.50
2018-09-17T12:10:07.345Z,7.50
2018-09-17T12:11:07.342Z,7.10
2018-09-17T12:12:07.340Z,7.10
2018-09-17T12:13:07.346Z,6.30
2018-09-17T12:14:07.340Z,7.40
2018-09-17T12:15:07.339Z,8.50
2018-09-17T12:16:07.339Z,8.90
2018-09-17T12:17:07.339Z,6.30
2018-09-17T12:18:07.331Z,7.40
2018-09-17T12:19:07.332Z,6.30
2018-09-17T12:20:07.335Z,7.80
2018-09-17T12:21:07.329Z,9.00
2018-09-17T12:22:07.334Z,5.40
2018-09-17T12:23:07.326Z,6.70
2018-09-17T12:24:07.325Z,6.90
2018-09-17T12:25:07.326Z,5.90
2018-09-17T12:26:07.322Z,6.10
2018-09-17T12:27:07.328Z,4.50
2018-09-17T12:28:07.326Z,6.00
2018-09-17T12:29:07.319Z,9.60
2018-09-17T12:30:07.323Z,11.80
2018-09-17T12:31:07.320Z,6.80
2018-09-17T12:32:07.317Z,7.30
2018-09-17T12:33:07.321Z,8.70
2018-09-17T12:34:07.315Z,6.10
2018-09-17T12:35:07.314Z,6.90
2018-09-17T12:36:07.316Z,8.40
2018-09-17T12:37:07.312Z,6.70
2018-09-17T12:38:07.312Z,5.70
2018-09-17T12:39:07.310Z,6.10
2018-09-17T12:40:07.316Z,6.20
2018-09-17T12:41:07.309Z,6.30
2018-09-17T12:42:07.312Z,6.70
2018-09-17T12:43:07.311Z,9.80
2018-09-17T12:44:07.305Z,5.60
2018-09-17T12:45:07.311Z,5.50
2018-09-17T12:46:07.303Z,5.80
2018-09-17T12:47:07.308Z,4.80
2018-09-17T12:48:07.309Z,5.10
2018-09-17T12:49:07.301Z,7.30
2018-09-17T12:50:07.299Z,5.60
2018-09-17T12:51:07.330Z,7.20
2018-09-17T12:52:07.298Z,5.30
2018-09-17T12:53:07.297Z,5.70